sensor_id;sensor_type;location;lat;lon;timestamp;P1;durP1;ratioP1;P2;durP2;ratioP2
75496;SDS011;64074;47.540;19.072;2023-02-19T00:02:31;2.10;;;1.10;;
75496;SDS011;64074;47.540;19.072;2023-02-19T00:05:34;1.35;;;0.73;;
75496;SDS011;64074;47.540;19.072;2023-02-19T00:08:38;1.95;;;0.88;;
75496;SDS011;64074;47.540;19.072;2023-02-19T00:11:42;1.10;;;0.80;;
75496;SDS011;64074;47.540;19.072;2023-02-19T00:14:46;0.80;;;0.80;;
75496;SDS011;64074;47.540;19.072;2023-02-19T00:17:49;1.63;;;0.83;;
75496;SDS011;64074;47.540;19.072;2023-02-19T00:20:54;1.20;;;0.90;;
75496;SDS011;64074;47.540;19.072;2023-02-19T00:24:00;1.75;;;0.93;;
75496;SDS011;64074;47.540;19.072;2023-02-19T00:27:06;1.25;;;0.60;;
75496;SDS011;64074;47.540;19.072;2023-02-19T00:30:10;1.30;;;0.90;;
75496;SDS011;64074;47.540;19.072;2023-02-19T00:33:14;1.50;;;0.70;;
75496;SDS011;64074;47.540;19.072;2023-02-19T00:36:17;1.17;;;0.60;;
75496;SDS011;64074;47.540;19.072;2023-02-19T00:39:22;1.38;;;0.80;;
75496;SDS011;64074;47.540;19.072;2023-02-19T00:42:26;1.92;;;0.77;;
75496;SDS011;64074;47.540;19.072;2023-02-19T00:45:29;0.80;;;0.55;;
75496;SDS011;64074;47.540;19.072;2023-02-19T00:48:32;1.20;;;0.73;;
75496;SDS011;64074;47.540;19.072;2023-02-19T00:51:36;1.20;;;0.57;;
75496;SDS011;64074;47.540;19.072;2023-02-19T00:54:40;1.40;;;0.80;;
75496;SDS011;64074;47.540;19.072;2023-02-19T00:57:44;0.88;;;0.57;;
75496;SDS011;64074;47.540;19.072;2023-02-19T01:00:47;0.65;;;0.60;;
75496;SDS011;64074;47.540;19.072;2023-02-19T01:03:51;1.03;;;0.77;;
75496;SDS011;64074;47.540;19.072;2023-02-19T01:06:54;0.95;;;0.60;;
75496;SDS011;64074;47.540;19.072;2023-02-19T01:09:58;0.90;;;0.73;;
75496;SDS011;64074;47.540;19.072;2023-02-19T01:13:01;0.88;;;0.50;;
75496;SDS011;64074;47.540;19.072;2023-02-19T01:19:13;2.13;;;0.60;;
75496;SDS011;64074;47.540;19.072;2023-02-19T01:22:16;0.75;;;0.32;;
75496;SDS011;64074;47.540;19.072;2023-02-19T01:25:20;1.10;;;0.70;;
75496;SDS011;64074;47.540;19.072;2023-02-19T01:28:23;0.70;;;0.47;;
75496;SDS011;64074;47.540;19.072;2023-02-19T01:31:28;0.63;;;0.43;;
75496;SDS011;64074;47.540;19.072;2023-02-19T01:34:35;0.80;;;0.40;;
75496;SDS011;64074;47.540;19.072;2023-02-19T01:37:38;1.02;;;0.60;;
75496;SDS011;64074;47.540;19.072;2023-02-19T01:40:41;1.33;;;0.60;;
75496;SDS011;64074;47.540;19.072;2023-02-19T01:47:05;0.88;;;0.60;;
75496;SDS011;64074;47.540;19.072;2023-02-19T01:50:08;0.57;;;0.40;;
75496;SDS011;64074;47.540;19.072;2023-02-19T01:53:12;1.77;;;0.50;;
75496;SDS011;64074;47.540;19.072;2023-02-19T01:56:20;1.15;;;0.70;;
75496;SDS011;64074;47.540;19.072;2023-02-19T01:59:25;1.55;;;0.70;;
75496;SDS011;64074;47.540;19.072;2023-02-19T02:02:28;1.17;;;0.60;;
75496;SDS011;64074;47.540;19.072;2023-02-19T02:08:47;0.70;;;0.60;;
75496;SDS011;64074;47.540;19.072;2023-02-19T02:12:11;2.15;;;0.60;;
75496;SDS011;64074;47.540;19.072;2023-02-19T02:15:15;0.98;;;0.55;;
75496;SDS011;64074;47.540;19.072;2023-02-19T02:25:15;0.85;;;0.60;;
75496;SDS011;64074;47.540;19.072;2023-02-19T02:31:49;0.65;;;0.50;;
75496;SDS011;64074;47.540;19.072;2023-02-19T02:35:09;0.60;;;0.40;;
75496;SDS011;64074;47.540;19.072;2023-02-19T02:38:19;0.83;;;0.30;;
75496;SDS011;64074;47.540;19.072;2023-02-19T02:41:28;0.55;;;0.30;;
75496;SDS011;64074;47.540;19.072;2023-02-19T02:44:35;1.10;;;0.40;;
75496;SDS011;64074;47.540;19.072;2023-02-19T02:47:40;0.70;;;0.30;;
75496;SDS011;64074;47.540;19.072;2023-02-19T02:50:58;0.70;;;0.40;;
75496;SDS011;64074;47.540;19.072;2023-02-19T02:54:11;0.50;;;0.23;;
75496;SDS011;64074;47.540;19.072;2023-02-19T02:57:41;0.57;;;0.28;;
75496;SDS011;64074;47.540;19.072;2023-02-19T03:00:45;0.60;;;0.32;;
75496;SDS011;64074;47.540;19.072;2023-02-19T03:04:59;0.60;;;0.43;;
75496;SDS011;64074;47.540;19.072;2023-02-19T03:07:37;1.35;;;0.38;;
75496;SDS011;64074;47.540;19.072;2023-02-19T03:13:56;0.60;;;0.45;;
75496;SDS011;64074;47.540;19.072;2023-02-19T03:17:32;0.93;;;0.50;;
75496;SDS011;64074;47.540;19.072;2023-02-19T03:20:56;0.93;;;0.60;;
75496;SDS011;64074;47.540;19.072;2023-02-19T03:24:01;0.70;;;0.52;;
75496;SDS011;64074;47.540;19.072;2023-02-19T03:27:25;0.83;;;0.70;;
75496;SDS011;64074;47.540;19.072;2023-02-19T03:30:34;0.77;;;0.52;;
75496;SDS011;64074;47.540;19.072;2023-02-19T03:33:42;0.50;;;0.40;;
75496;SDS011;64074;47.540;19.072;2023-02-19T03:36:53;1.00;;;0.65;;
75496;SDS011;64074;47.540;19.072;2023-02-19T03:40:09;2.28;;;0.65;;
75496;SDS011;64074;47.540;19.072;2023-02-19T03:46:43;1.00;;;0.60;;
75496;SDS011;64074;47.540;19.072;2023-02-19T03:50:05;0.82;;;0.57;;
75496;SDS011;64074;47.540;19.072;2023-02-19T03:53:27;1.05;;;0.43;;
75496;SDS011;64074;47.540;19.072;2023-02-19T03:56:41;1.17;;;0.50;;
75496;SDS011;64074;47.540;19.072;2023-02-19T03:59:55;0.70;;;0.50;;
75496;SDS011;64074;47.540;19.072;2023-02-19T04:03:19;0.75;;;0.50;;
75496;SDS011;64074;47.540;19.072;2023-02-19T04:06:43;0.90;;;0.52;;
75496;SDS011;64074;47.540;19.072;2023-02-19T04:09:55;0.60;;;0.50;;
75496;SDS011;64074;47.540;19.072;2023-02-19T04:13:00;0.95;;;0.60;;
75496;SDS011;64074;47.540;19.072;2023-02-19T04:16:11;1.43;;;0.57;;
75496;SDS011;64074;47.540;19.072;2023-02-19T04:19:20;0.80;;;0.50;;
75496;SDS011;64074;47.540;19.072;2023-02-19T04:22:26;0.88;;;0.40;;
75496;SDS011;64074;47.540;19.072;2023-02-19T04:25:31;0.80;;;0.50;;
75496;SDS011;64074;47.540;19.072;2023-02-19T04:28:35;0.75;;;0.50;;
75496;SDS011;64074;47.540;19.072;2023-02-19T04:31:40;0.70;;;0.50;;
75496;SDS011;64074;47.540;19.072;2023-02-19T04:34:43;0.50;;;0.32;;
75496;SDS011;64074;47.540;19.072;2023-02-19T04:37:46;1.38;;;0.70;;
75496;SDS011;64074;47.540;19.072;2023-02-19T04:40:49;0.70;;;0.50;;
75496;SDS011;64074;47.540;19.072;2023-02-19T04:43:53;0.73;;;0.60;;
75496;SDS011;64074;47.540;19.072;2023-02-19T04:46:57;0.97;;;0.40;;
75496;SDS011;64074;47.540;19.072;2023-02-19T04:49:59;0.73;;;0.45;;
75496;SDS011;64074;47.540;19.072;2023-02-19T04:53:03;1.15;;;0.50;;
75496;SDS011;64074;47.540;19.072;2023-02-19T04:56:06;1.60;;;0.60;;
75496;SDS011;64074;47.540;19.072;2023-02-19T04:59:10;0.60;;;0.40;;
75496;SDS011;64074;47.540;19.072;2023-02-19T05:02:13;0.70;;;0.50;;
75496;SDS011;64074;47.540;19.072;2023-02-19T05:05:16;0.55;;;0.40;;
75496;SDS011;64074;47.540;19.072;2023-02-19T05:08:19;1.17;;;0.68;;
75496;SDS011;64074;47.540;19.072;2023-02-19T05:11:22;0.43;;;0.40;;
75496;SDS011;64074;47.540;19.072;2023-02-19T05:14:26;0.40;;;0.40;;
75496;SDS011;64074;47.540;19.072;2023-02-19T05:17:31;1.00;;;0.77;;
75496;SDS011;64074;47.540;19.072;2023-02-19T05:20:35;0.80;;;0.50;;
75496;SDS011;64074;47.540;19.072;2023-02-19T05:23:38;0.70;;;0.55;;
75496;SDS011;64074;47.540;19.072;2023-02-19T05:26:42;0.85;;;0.50;;
75496;SDS011;64074;47.540;19.072;2023-02-19T05:29:46;1.60;;;0.50;;
75496;SDS011;64074;47.540;19.072;2023-02-19T05:32:49;0.90;;;0.40;;
75496;SDS011;64074;47.540;19.072;2023-02-19T05:35:53;0.57;;;0.30;;
75496;SDS011;64074;47.540;19.072;2023-02-19T05:38:58;0.75;;;0.30;;
75496;SDS011;64074;47.540;19.072;2023-02-19T05:42:01;1.10;;;0.40;;
75496;SDS011;64074;47.540;19.072;2023-02-19T05:45:05;0.90;;;0.60;;
75496;SDS011;64074;47.540;19.072;2023-02-19T05:48:09;0.50;;;0.20;;
75496;SDS011;64074;47.540;19.072;2023-02-19T05:51:17;1.35;;;0.65;;
75496;SDS011;64074;47.540;19.072;2023-02-19T05:54:22;0.80;;;0.45;;
75496;SDS011;64074;47.540;19.072;2023-02-19T05:57:25;1.48;;;1.20;;
75496;SDS011;64074;47.540;19.072;2023-02-19T06:00:29;1.50;;;1.00;;
75496;SDS011;64074;47.540;19.072;2023-02-19T06:03:33;1.17;;;0.83;;
75496;SDS011;64074;47.540;19.072;2023-02-19T06:06:35;1.00;;;0.70;;
75496;SDS011;64074;47.540;19.072;2023-02-19T06:09:39;1.55;;;1.05;;
75496;SDS011;64074;47.540;19.072;2023-02-19T06:12:41;1.35;;;0.90;;
75496;SDS011;64074;47.540;19.072;2023-02-19T06:15:44;2.03;;;1.20;;
75496;SDS011;64074;47.540;19.072;2023-02-19T06:18:47;3.50;;;1.20;;
75496;SDS011;64074;47.540;19.072;2023-02-19T06:21:50;1.75;;;1.10;;
75496;SDS011;64074;47.540;19.072;2023-02-19T06:24:54;2.33;;;1.35;;
75496;SDS011;64074;47.540;19.072;2023-02-19T06:27:57;3.58;;;1.50;;
75496;SDS011;64074;47.540;19.072;2023-02-19T06:31:00;3.28;;;1.70;;
75496;SDS011;64074;47.540;19.072;2023-02-19T06:34:03;3.67;;;1.70;;
75496;SDS011;64074;47.540;19.072;2023-02-19T06:37:07;3.40;;;1.77;;
75496;SDS011;64074;47.540;19.072;2023-02-19T06:40:11;3.78;;;1.70;;
75496;SDS011;64074;47.540;19.072;2023-02-19T06:43:16;2.90;;;1.73;;
75496;SDS011;64074;47.540;19.072;2023-02-19T06:46:18;2.75;;;1.80;;
75496;SDS011;64074;47.540;19.072;2023-02-19T06:49:23;3.53;;;1.77;;
75496;SDS011;64074;47.540;19.072;2023-02-19T06:52:27;2.80;;;2.05;;
75496;SDS011;64074;47.540;19.072;2023-02-19T06:55:30;4.60;;;1.83;;
75496;SDS011;64074;47.540;19.072;2023-02-19T06:58:34;3.85;;;2.03;;
75496;SDS011;64074;47.540;19.072;2023-02-19T07:01:38;3.15;;;1.50;;
75496;SDS011;64074;47.540;19.072;2023-02-19T07:04:42;2.97;;;1.40;;
75496;SDS011;64074;47.540;19.072;2023-02-19T07:07:45;2.85;;;1.52;;
75496;SDS011;64074;47.540;19.072;2023-02-19T07:10:54;2.42;;;1.33;;
75496;SDS011;64074;47.540;19.072;2023-02-19T07:14:00;2.05;;;1.33;;
75496;SDS011;64074;47.540;19.072;2023-02-19T07:17:04;1.30;;;1.00;;
75496;SDS011;64074;47.540;19.072;2023-02-19T07:20:08;1.03;;;0.70;;
75496;SDS011;64074;47.540;19.072;2023-02-19T07:23:12;2.08;;;0.93;;
75496;SDS011;64074;47.540;19.072;2023-02-19T07:26:15;1.90;;;1.05;;
75496;SDS011;64074;47.540;19.072;2023-02-19T07:29:20;1.90;;;0.93;;
75496;SDS011;64074;47.540;19.072;2023-02-19T07:32:23;1.73;;;0.70;;
75496;SDS011;64074;47.540;19.072;2023-02-19T07:35:27;0.90;;;0.70;;
75496;SDS011;64074;47.540;19.072;2023-02-19T07:38:30;1.77;;;0.98;;
75496;SDS011;64074;47.540;19.072;2023-02-19T07:41:33;0.90;;;0.63;;
75496;SDS011;64074;47.540;19.072;2023-02-19T07:44:36;1.23;;;0.80;;
75496;SDS011;64074;47.540;19.072;2023-02-19T07:47:38;1.85;;;1.00;;
75496;SDS011;64074;47.540;19.072;2023-02-19T07:50:41;1.20;;;0.70;;
75496;SDS011;64074;47.540;19.072;2023-02-19T07:53:52;1.40;;;1.17;;
75496;SDS011;64074;47.540;19.072;2023-02-19T07:56:55;2.72;;;1.60;;
75496;SDS011;64074;47.540;19.072;2023-02-19T07:59:58;2.35;;;1.75;;
75496;SDS011;64074;47.540;19.072;2023-02-19T08:03:01;3.92;;;2.45;;
75496;SDS011;64074;47.540;19.072;2023-02-19T08:06:04;4.07;;;2.87;;
75496;SDS011;64074;47.540;19.072;2023-02-19T08:09:08;6.05;;;2.83;;
75496;SDS011;64074;47.540;19.072;2023-02-19T08:12:11;4.78;;;3.00;;
75496;SDS011;64074;47.540;19.072;2023-02-19T08:15:33;6.82;;;3.85;;
75496;SDS011;64074;47.540;19.072;2023-02-19T08:18:36;5.88;;;3.88;;
75496;SDS011;64074;47.540;19.072;2023-02-19T08:21:39;3.17;;;1.80;;
75496;SDS011;64074;47.540;19.072;2023-02-19T08:24:41;2.65;;;1.33;;
75496;SDS011;64074;47.540;19.072;2023-02-19T08:27:49;2.60;;;1.60;;
75496;SDS011;64074;47.540;19.072;2023-02-19T08:30:52;1.85;;;0.60;;
75496;SDS011;64074;47.540;19.072;2023-02-19T08:33:56;1.20;;;0.57;;
75496;SDS011;64074;47.540;19.072;2023-02-19T08:36:59;1.37;;;0.63;;
75496;SDS011;64074;47.540;19.072;2023-02-19T08:40:03;1.33;;;0.60;;
75496;SDS011;64074;47.540;19.072;2023-02-19T08:43:07;1.10;;;0.70;;
75496;SDS011;64074;47.540;19.072;2023-02-19T08:46:12;1.67;;;0.80;;
75496;SDS011;64074;47.540;19.072;2023-02-19T08:49:15;1.50;;;0.80;;
75496;SDS011;64074;47.540;19.072;2023-02-19T08:52:19;1.67;;;1.00;;
75496;SDS011;64074;47.540;19.072;2023-02-19T08:55:22;3.00;;;1.50;;
75496;SDS011;64074;47.540;19.072;2023-02-19T08:58:25;4.18;;;2.33;;
75496;SDS011;64074;47.540;19.072;2023-02-19T09:01:27;4.28;;;2.53;;
75496;SDS011;64074;47.540;19.072;2023-02-19T09:04:30;5.32;;;3.28;;
75496;SDS011;64074;47.540;19.072;2023-02-19T09:07:33;6.97;;;3.60;;
75496;SDS011;64074;47.540;19.072;2023-02-19T09:10:37;7.30;;;4.43;;
75496;SDS011;64074;47.540;19.072;2023-02-19T09:13:41;9.85;;;4.65;;
75496;SDS011;64074;47.540;19.072;2023-02-19T09:16:44;8.27;;;4.28;;
75496;SDS011;64074;47.540;19.072;2023-02-19T09:19:48;8.68;;;4.40;;
75496;SDS011;64074;47.540;19.072;2023-02-19T09:23:02;8.90;;;4.93;;
75496;SDS011;64074;47.540;19.072;2023-02-19T09:26:05;8.18;;;4.50;;
75496;SDS011;64074;47.540;19.072;2023-02-19T09:29:14;8.70;;;4.30;;
75496;SDS011;64074;47.540;19.072;2023-02-19T09:32:17;6.93;;;3.75;;
75496;SDS011;64074;47.540;19.072;2023-02-19T09:35:21;7.18;;;3.90;;
75496;SDS011;64074;47.540;19.072;2023-02-19T09:38:24;12.37;;;3.67;;
75496;SDS011;64074;47.540;19.072;2023-02-19T09:41:31;6.63;;;3.50;;
75496;SDS011;64074;47.540;19.072;2023-02-19T09:44:38;7.13;;;3.90;;
75496;SDS011;64074;47.540;19.072;2023-02-19T09:47:43;6.50;;;3.60;;
75496;SDS011;64074;47.540;19.072;2023-02-19T09:50:47;6.32;;;3.97;;
75496;SDS011;64074;47.540;19.072;2023-02-19T09:53:52;7.70;;;4.13;;
75496;SDS011;64074;47.540;19.072;2023-02-19T09:56:58;7.63;;;4.07;;
75496;SDS011;64074;47.540;19.072;2023-02-19T10:00:19;7.70;;;4.03;;
75496;SDS011;64074;47.540;19.072;2023-02-19T10:06:35;7.80;;;4.38;;
75496;SDS011;64074;47.540;19.072;2023-02-19T10:09:39;7.90;;;4.30;;
75496;SDS011;64074;47.540;19.072;2023-02-19T10:12:46;8.88;;;4.50;;
75496;SDS011;64074;47.540;19.072;2023-02-19T10:15:56;8.20;;;4.57;;
75496;SDS011;64074;47.540;19.072;2023-02-19T10:19:01;7.80;;;4.60;;
75496;SDS011;64074;47.540;19.072;2023-02-19T10:22:05;7.28;;;4.40;;
75496;SDS011;64074;47.540;19.072;2023-02-19T10:25:15;7.73;;;4.23;;
75496;SDS011;64074;47.540;19.072;2023-02-19T10:28:19;7.50;;;4.45;;
75496;SDS011;64074;47.540;19.072;2023-02-19T10:31:24;9.65;;;4.15;;
75496;SDS011;64074;47.540;19.072;2023-02-19T10:34:30;6.38;;;3.80;;
75496;SDS011;64074;47.540;19.072;2023-02-19T10:37:34;6.18;;;3.35;;
75496;SDS011;64074;47.540;19.072;2023-02-19T10:40:44;5.43;;;2.50;;
75496;SDS011;64074;47.540;19.072;2023-02-19T10:44:07;5.20;;;2.75;;
75496;SDS011;64074;47.540;19.072;2023-02-19T10:47:22;4.72;;;2.60;;
75496;SDS011;64074;47.540;19.072;2023-02-19T10:50:30;4.90;;;2.50;;
75496;SDS011;64074;47.540;19.072;2023-02-19T10:53:46;5.38;;;3.03;;
75496;SDS011;64074;47.540;19.072;2023-02-19T10:56:50;5.47;;;2.90;;
75496;SDS011;64074;47.540;19.072;2023-02-19T10:59:54;5.30;;;2.95;;
75496;SDS011;64074;47.540;19.072;2023-02-19T11:06:35;4.53;;;2.58;;
75496;SDS011;64074;47.540;19.072;2023-02-19T11:09:39;3.85;;;2.35;;
75496;SDS011;64074;47.540;19.072;2023-02-19T11:12:46;3.30;;;1.43;;
75496;SDS011;64074;47.540;19.072;2023-02-19T11:15:52;4.28;;;1.67;;
75496;SDS011;64074;47.540;19.072;2023-02-19T11:18:57;2.97;;;1.40;;
75496;SDS011;64074;47.540;19.072;2023-02-19T11:22:01;5.13;;;1.42;;
75496;SDS011;64074;47.540;19.072;2023-02-19T11:25:20;2.83;;;1.50;;
75496;SDS011;64074;47.540;19.072;2023-02-19T11:28:30;2.93;;;1.70;;
75496;SDS011;64074;47.540;19.072;2023-02-19T11:31:34;2.90;;;1.40;;
75496;SDS011;64074;47.540;19.072;2023-02-19T11:34:38;2.70;;;1.58;;
75496;SDS011;64074;47.540;19.072;2023-02-19T11:37:54;3.22;;;1.63;;
75496;SDS011;64074;47.540;19.072;2023-02-19T11:51:55;3.17;;;1.52;;
75496;SDS011;64074;47.540;19.072;2023-02-19T11:55:04;4.15;;;1.65;;
75496;SDS011;64074;47.540;19.072;2023-02-19T12:05:26;2.72;;;1.10;;
75496;SDS011;64074;47.540;19.072;2023-02-19T12:09:38;2.90;;;1.20;;
75496;SDS011;64074;47.540;19.072;2023-02-19T12:12:14;3.75;;;1.50;;
75496;SDS011;64074;47.540;19.072;2023-02-19T12:22:32;2.22;;;1.33;;
75496;SDS011;64074;47.540;19.072;2023-02-19T12:25:46;2.80;;;1.60;;
75496;SDS011;64074;47.540;19.072;2023-02-19T12:46:07;2.90;;;1.70;;
75496;SDS011;64074;47.540;19.072;2023-02-19T12:52:56;4.90;;;1.50;;
75496;SDS011;64074;47.540;19.072;2023-02-19T12:56:19;2.05;;;1.00;;
75496;SDS011;64074;47.540;19.072;2023-02-19T12:59:36;2.90;;;1.20;;
75496;SDS011;64074;47.540;19.072;2023-02-19T13:02:45;1.67;;;0.80;;
75496;SDS011;64074;47.540;19.072;2023-02-19T13:09:50;1.03;;;0.60;;
75496;SDS011;64074;47.540;19.072;2023-02-19T13:12:57;2.22;;;0.43;;
75496;SDS011;64074;47.540;19.072;2023-02-19T13:16:06;0.60;;;0.20;;
75496;SDS011;64074;47.540;19.072;2023-02-19T13:19:16;0.40;;;0.22;;
75496;SDS011;64074;47.540;19.072;2023-02-19T13:22:30;1.60;;;0.80;;
75496;SDS011;64074;47.540;19.072;2023-02-19T13:32:49;1.27;;;0.65;;
75496;SDS011;64074;47.540;19.072;2023-02-19T13:36:22;1.15;;;0.50;;
75496;SDS011;64074;47.540;19.072;2023-02-19T13:39:32;2.58;;;0.52;;
75496;SDS011;64074;47.540;19.072;2023-02-19T13:42:36;0.80;;;0.50;;
75496;SDS011;64074;47.540;19.072;2023-02-19T13:45:39;2.08;;;0.73;;
75496;SDS011;64074;47.540;19.072;2023-02-19T13:48:47;2.33;;;0.55;;
75496;SDS011;64074;47.540;19.072;2023-02-19T13:58:52;0.60;;;0.20;;
75496;SDS011;64074;47.540;19.072;2023-02-19T14:05:05;0.63;;;0.28;;
75496;SDS011;64074;47.540;19.072;2023-02-19T14:08:12;1.30;;;0.47;;
75496;SDS011;64074;47.540;19.072;2023-02-19T14:14:50;1.30;;;0.60;;
75496;SDS011;64074;47.540;19.072;2023-02-19T14:17:54;2.78;;;0.52;;
75496;SDS011;64074;47.540;19.072;2023-02-19T14:21:05;0.85;;;0.47;;
75496;SDS011;64074;47.540;19.072;2023-02-19T14:24:17;0.77;;;0.40;;
75496;SDS011;64074;47.540;19.072;2023-02-19T14:27:21;0.90;;;0.22;;
75496;SDS011;64074;47.540;19.072;2023-02-19T14:30:29;0.20;;;0.07;;
75496;SDS011;64074;47.540;19.072;2023-02-19T14:33:35;0.30;;;0.10;;
75496;SDS011;64074;47.540;19.072;2023-02-19T14:37:02;0.28;;;0.20;;
75496;SDS011;64074;47.540;19.072;2023-02-19T14:40:11;3.00;;;1.27;;
75496;SDS011;64074;47.540;19.072;2023-02-19T14:43:23;4.97;;;1.55;;
75496;SDS011;64074;47.540;19.072;2023-02-19T14:46:31;0.83;;;0.30;;
75496;SDS011;64074;47.540;19.072;2023-02-19T14:49:46;0.30;;;0.03;;
75496;SDS011;64074;47.540;19.072;2023-02-19T14:52:55;0.70;;;0.15;;
75496;SDS011;64074;47.540;19.072;2023-02-19T14:56:02;0.50;;;0.05;;
75496;SDS011;64074;47.540;19.072;2023-02-19T14:59:08;0.75;;;0.15;;
75496;SDS011;64074;47.540;19.072;2023-02-19T15:02:14;1.37;;;0.20;;
75496;SDS011;64074;47.540;19.072;2023-02-19T15:05:24;0.40;;;0.10;;
75496;SDS011;64074;47.540;19.072;2023-02-19T15:08:31;0.40;;;0.20;;
75496;SDS011;64074;47.540;19.072;2023-02-19T15:11:40;0.70;;;0.10;;
75496;SDS011;64074;47.540;19.072;2023-02-19T15:14:45;0.50;;;0.10;;
75496;SDS011;64074;47.540;19.072;2023-02-19T15:17:51;0.57;;;0.10;;
75496;SDS011;64074;47.540;19.072;2023-02-19T15:20:57;0.93;;;0.10;;
75496;SDS011;64074;47.540;19.072;2023-02-19T15:24:04;0.93;;;0.20;;
75496;SDS011;64074;47.540;19.072;2023-02-19T15:27:18;1.30;;;0.17;;
75496;SDS011;64074;47.540;19.072;2023-02-19T15:30:30;0.47;;;0.10;;
75496;SDS011;64074;47.540;19.072;2023-02-19T15:33:33;0.50;;;0.20;;
75496;SDS011;64074;47.540;19.072;2023-02-19T15:36:37;0.73;;;0.22;;
75496;SDS011;64074;47.540;19.072;2023-02-19T15:39:42;0.60;;;0.20;;
75496;SDS011;64074;47.540;19.072;2023-02-19T15:42:51;0.73;;;0.30;;
75496;SDS011;64074;47.540;19.072;2023-02-19T15:45:56;1.13;;;0.32;;
75496;SDS011;64074;47.540;19.072;2023-02-19T15:52:59;0.28;;;0.03;;
75496;SDS011;64074;47.540;19.072;2023-02-19T15:59:37;0.30;;;0.10;;
75496;SDS011;64074;47.540;19.072;2023-02-19T16:02:45;0.63;;;0.20;;
75496;SDS011;64074;47.540;19.072;2023-02-19T16:06:00;0.70;;;0.30;;
75496;SDS011;64074;47.540;19.072;2023-02-19T16:09:22;0.60;;;0.13;;
75496;SDS011;64074;47.540;19.072;2023-02-19T16:12:31;1.02;;;0.28;;
75496;SDS011;64074;47.540;19.072;2023-02-19T16:15:34;0.65;;;0.15;;
75496;SDS011;64074;47.540;19.072;2023-02-19T16:18:38;1.70;;;0.32;;
75496;SDS011;64074;47.540;19.072;2023-02-19T16:21:49;1.03;;;0.30;;
75496;SDS011;64074;47.540;19.072;2023-02-19T16:24:55;1.40;;;0.20;;
75496;SDS011;64074;47.540;19.072;2023-02-19T16:28:08;0.50;;;0.22;;
75496;SDS011;64074;47.540;19.072;2023-02-19T16:31:35;1.45;;;0.60;;
75496;SDS011;64074;47.540;19.072;2023-02-19T16:34:43;0.93;;;0.35;;
75496;SDS011;64074;47.540;19.072;2023-02-19T16:37:56;0.70;;;0.10;;
75496;SDS011;64074;47.540;19.072;2023-02-19T16:41:14;0.88;;;0.10;;
75496;SDS011;64074;47.540;19.072;2023-02-19T16:47:33;1.50;;;0.08;;
75496;SDS011;64074;47.540;19.072;2023-02-19T16:50:40;1.02;;;0.17;;
75496;SDS011;64074;47.540;19.072;2023-02-19T16:53:44;0.90;;;0.20;;
75496;SDS011;64074;47.540;19.072;2023-02-19T16:56:47;0.52;;;0.17;;
75496;SDS011;64074;47.540;19.072;2023-02-19T16:59:50;0.60;;;0.20;;
75496;SDS011;64074;47.540;19.072;2023-02-19T17:02:55;1.20;;;0.13;;
75496;SDS011;64074;47.540;19.072;2023-02-19T17:06:00;0.60;;;0.30;;
75496;SDS011;64074;47.540;19.072;2023-02-19T17:09:04;1.17;;;0.40;;
75496;SDS011;64074;47.540;19.072;2023-02-19T17:12:09;0.63;;;0.22;;
75496;SDS011;64074;47.540;19.072;2023-02-19T17:15:18;0.88;;;0.20;;
75496;SDS011;64074;47.540;19.072;2023-02-19T17:18:22;1.45;;;0.32;;
75496;SDS011;64074;47.540;19.072;2023-02-19T17:21:25;0.85;;;0.20;;
75496;SDS011;64074;47.540;19.072;2023-02-19T17:24:30;0.57;;;0.10;;
75496;SDS011;64074;47.540;19.072;2023-02-19T17:27:34;0.90;;;0.30;;
75496;SDS011;64074;47.540;19.072;2023-02-19T17:30:39;0.73;;;0.20;;
75496;SDS011;64074;47.540;19.072;2023-02-19T17:33:43;0.82;;;0.20;;
75496;SDS011;64074;47.540;19.072;2023-02-19T17:36:47;0.65;;;0.30;;
75496;SDS011;64074;47.540;19.072;2023-02-19T17:39:52;0.60;;;0.10;;
75496;SDS011;64074;47.540;19.072;2023-02-19T17:42:56;1.95;;;0.20;;
75496;SDS011;64074;47.540;19.072;2023-02-19T17:45:59;1.55;;;0.45;;
75496;SDS011;64074;47.540;19.072;2023-02-19T17:49:02;0.70;;;0.28;;
75496;SDS011;64074;47.540;19.072;2023-02-19T17:52:05;1.10;;;0.50;;
75496;SDS011;64074;47.540;19.072;2023-02-19T17:55:10;2.27;;;0.50;;
75496;SDS011;64074;47.540;19.072;2023-02-19T17:58:18;1.25;;;0.60;;
75496;SDS011;64074;47.540;19.072;2023-02-19T18:01:21;1.42;;;0.70;;
75496;SDS011;64074;47.540;19.072;2023-02-19T18:04:24;0.90;;;0.40;;
75496;SDS011;64074;47.540;19.072;2023-02-19T18:07:28;1.55;;;0.60;;
75496;SDS011;64074;47.540;19.072;2023-02-19T18:10:32;1.67;;;0.50;;
75496;SDS011;64074;47.540;19.072;2023-02-19T18:13:35;0.98;;;0.50;;
75496;SDS011;64074;47.540;19.072;2023-02-19T18:16:43;0.82;;;0.40;;
75496;SDS011;64074;47.540;19.072;2023-02-19T18:19:51;0.88;;;0.47;;
75496;SDS011;64074;47.540;19.072;2023-02-19T18:22:55;1.10;;;0.60;;
75496;SDS011;64074;47.540;19.072;2023-02-19T18:26:00;0.80;;;0.40;;
75496;SDS011;64074;47.540;19.072;2023-02-19T18:29:03;1.88;;;0.30;;
75496;SDS011;64074;47.540;19.072;2023-02-19T18:32:07;1.40;;;0.70;;
75496;SDS011;64074;47.540;19.072;2023-02-19T18:35:11;0.77;;;0.47;;
75496;SDS011;64074;47.540;19.072;2023-02-19T18:38:14;1.60;;;0.63;;
75496;SDS011;64074;47.540;19.072;2023-02-19T18:41:19;0.80;;;0.50;;
75496;SDS011;64074;47.540;19.072;2023-02-19T18:44:23;1.20;;;0.63;;
75496;SDS011;64074;47.540;19.072;2023-02-19T18:47:27;1.42;;;0.80;;
75496;SDS011;64074;47.540;19.072;2023-02-19T18:50:30;0.85;;;0.47;;
75496;SDS011;64074;47.540;19.072;2023-02-19T18:53:35;0.90;;;0.55;;
75496;SDS011;64074;47.540;19.072;2023-02-19T18:56:40;2.07;;;1.10;;
75496;SDS011;64074;47.540;19.072;2023-02-19T18:59:47;1.02;;;0.65;;
75496;SDS011;64074;47.540;19.072;2023-02-19T19:02:50;3.35;;;1.80;;
75496;SDS011;64074;47.540;19.072;2023-02-19T19:05:57;1.00;;;0.65;;
75496;SDS011;64074;47.540;19.072;2023-02-19T19:09:02;1.30;;;0.70;;
75496;SDS011;64074;47.540;19.072;2023-02-19T19:12:06;2.37;;;1.30;;
75496;SDS011;64074;47.540;19.072;2023-02-19T19:15:14;2.70;;;1.45;;
75496;SDS011;64074;47.540;19.072;2023-02-19T19:18:19;3.33;;;1.50;;
75496;SDS011;64074;47.540;19.072;2023-02-19T19:21:23;1.73;;;0.95;;
75496;SDS011;64074;47.540;19.072;2023-02-19T19:24:27;1.48;;;0.90;;
75496;SDS011;64074;47.540;19.072;2023-02-19T19:27:33;1.47;;;0.90;;
75496;SDS011;64074;47.540;19.072;2023-02-19T19:30:38;1.73;;;0.88;;
75496;SDS011;64074;47.540;19.072;2023-02-19T19:33:43;1.92;;;1.00;;
75496;SDS011;64074;47.540;19.072;2023-02-19T19:36:47;1.30;;;0.70;;
75496;SDS011;64074;47.540;19.072;2023-02-19T19:39:50;2.33;;;1.23;;
75496;SDS011;64074;47.540;19.072;2023-02-19T19:42:54;2.60;;;1.20;;
75496;SDS011;64074;47.540;19.072;2023-02-19T19:45:59;2.80;;;1.48;;
75496;SDS011;64074;47.540;19.072;2023-02-19T19:49:05;2.30;;;1.48;;
75496;SDS011;64074;47.540;19.072;2023-02-19T19:52:08;2.70;;;1.48;;
75496;SDS011;64074;47.540;19.072;2023-02-19T19:55:11;2.15;;;1.23;;
75496;SDS011;64074;47.540;19.072;2023-02-19T19:58:15;2.40;;;1.73;;
75496;SDS011;64074;47.540;19.072;2023-02-19T20:01:22;3.65;;;1.73;;
75496;SDS011;64074;47.540;19.072;2023-02-19T20:04:26;2.05;;;1.33;;
75496;SDS011;64074;47.540;19.072;2023-02-19T20:07:29;3.33;;;1.80;;
75496;SDS011;64074;47.540;19.072;2023-02-19T20:10:33;2.58;;;1.30;;
75496;SDS011;64074;47.540;19.072;2023-02-19T20:13:36;1.97;;;1.17;;
75496;SDS011;64074;47.540;19.072;2023-02-19T20:16:39;2.80;;;1.40;;
75496;SDS011;64074;47.540;19.072;2023-02-19T20:19:46;2.50;;;1.55;;
75496;SDS011;64074;47.540;19.072;2023-02-19T20:22:50;5.38;;;3.05;;